Altamonte Springs, Florida
Current Conditions -  °F | °C
As of 9:53 PM on Monday 26 Jan 2015 (Local Time) from KORL Reporting Station
Clear Clear  
Wind Chill: 53°   Ceiling: Unl
Heat Index: 53°   Visibility: 10mi
Dew Point: 44°   Wind: 12mph
Humidity: 71%   Direction: 290°WNW
Pressure: 29.95"   Gusts: NA
Location:  28.67°N, 81.36°W
Report Text: KORL 270253Z AUTO 29010KT 10SM CLR 12/07 A2995 RMK AO2 SLP146 T01170067 53019
Loading
Personal Weather Stations






























Interactive Weather Map New forecast layout! Learn more

10-Day Weather Forecast

Advertisements
Track Severe Weather on mobile